Mistral — TCCH — position and weather

sailwx.info

Track history (hours):
 
Tides and Currents Weather Stations Pressure Air Temp Water Temp Dewpoint Dewpoint Depression Visibility Wind Speed Wind Dir Waves Ship Positions

Mistral

Last reported at 2014-Nov-14 00:33 UTC. Time now 2014-Nov-23 05:53 UTC.
Position N 36°16' E 027°01'.
Warning: this ship's position is 9 days out of date.

Length 130 m; draft 6 m.

Type: Cargo ship. MMSI: 271000615.

Date/timePositionNaut miles runAvg speedWind from/ knotsBaromVisibWave heightAir tempDewpointWater temp
2014-Nov-14 00:33N 36°16' E 027°01'33 8.2
2014-Nov-13 20:33N 36°40' E 026°33'9 8.7
2014-Nov-13 19:33N 36°46' E 026°26'18 8.8
2014-Nov-13 17:33N 36°58' E 026°10'9 9.5
2014-Nov-13 16:34N 37°04' E 026°01'10 9.6
2014-Nov-13 15:33N 37°11' E 025°52'9 9.5
2014-Nov-13 14:33N 37°14' E 025°40'9 9.4
2014-Nov-13 13:33N 37°17' E 025°29'9 9.0
2014-Nov-13 12:33N 37°20' E 025°19'9 8.8
2014-Nov-13 11:33N 37°22' E 025°08'8 7.6
2014-Nov-13 10:33N 37°25' E 024°59'0 0.1
2014-Nov-13 09:29N 37°25' E 024°59'0 0.0
2014-Nov-13 08:29N 37°25' E 024°59'0 0.0
2014-Nov-13 07:32N 37°25' E 024°59'0 0.0
2014-Nov-13 06:32N 37°25' E 024°59'6 6.1
2014-Nov-13 05:33N 37°28' E 025°06'10 9.7
2014-Nov-13 04:33N 37°32' E 025°17'9 9.3
2014-Nov-13 03:33N 37°41' E 025°20'10 9.7
2014-Nov-13 02:33N 37°51' E 025°22'168 9.1
2014-Nov-12 08:06N 40°36' E 025°55'5 9.8
2014-Nov-12 07:33N 40°42' E 025°55'8 8.2
2014-Nov-12 06:33N 40°50' E 025°54'1 1.0
2014-Nov-12 05:33N 40°51' E 025°53'0 0.0
2014-Nov-12 04:33N 40°51' E 025°53'0 0.0
2014-Nov-12 03:33N 40°51' E 025°53'0 0.0
2014-Nov-12 02:33N 40°51' E 025°53'0 0.0
2014-Nov-12 01:33N 40°51' E 025°53'0 0.0
2014-Nov-12 00:33N 40°51' E 025°53'0 0.0
2014-Nov-11 23:33N 40°51' E 025°53'0 0.0
2014-Nov-11 22:33N 40°51' E 025°53'0 0.0
2014-Nov-11 21:33N 40°51' E 025°53'0 0.0
2014-Nov-11 20:33N 40°51' E 025°53'0 0.0
2014-Nov-11 19:33N 40°51' E 025°53'0 0.0
2014-Nov-11 18:33N 40°51' E 025°53'0 0.0
2014-Nov-11 17:33N 40°51' E 025°53'0 0.0
2014-Nov-11 16:33N 40°51' E 025°53'0 0.0
2014-Nov-11 15:29N 40°51' E 025°53'0 0.0
2014-Nov-11 14:32N 40°51' E 025°53'0 0.0
2014-Nov-11 13:32N 40°51' E 025°53'0 0.0
2014-Nov-11 12:29N 40°51' E 025°53'0 0.0
2014-Nov-11 11:32N 40°51' E 025°53'0 0.0
2014-Nov-11 10:32N 40°51' E 025°53'0 0.0
2014-Nov-11 09:32N 40°51' E 025°53'0 0.0
2014-Nov-11 08:32N 40°51' E 025°53'0 0.0
2014-Nov-11 07:32N 40°51' E 025°53'0 0.0
2014-Nov-11 06:32N 40°51' E 025°53'0 0.0
2014-Nov-11 05:32N 40°51' E 025°53'0 0.0
2014-Nov-11 04:32N 40°51' E 025°53'0 0.0
2014-Nov-11 03:32N 40°51' E 025°53'0 0.0
2014-Nov-11 02:32N 40°51' E 025°53'0 0.0
2014-Nov-11 01:32N 40°51' E 025°53'0 0.0
2014-Nov-11 00:32N 40°51' E 025°53'0 0.0
2014-Nov-10 23:32N 40°51' E 025°53'0 0.0
2014-Nov-10 22:32N 40°51' E 025°53'0 0.0
2014-Nov-10 21:32N 40°51' E 025°53'0 0.0
2014-Nov-10 20:32N 40°51' E 025°53'0 0.0
2014-Nov-10 19:32N 40°51' E 025°53'0 0.0
2014-Nov-10 18:32N 40°51' E 025°53'0 0.0
2014-Nov-10 17:32N 40°51' E 025°53'0 0.0
2014-Nov-10 16:32N 40°51' E 025°53'0 0.0
2014-Nov-10 15:32N 40°51' E 025°53'0 0.0
2014-Nov-10 14:32N 40°51' E 025°53'0 0.0
2014-Nov-10 13:32N 40°51' E 025°53'0 0.0
2014-Nov-10 12:32N 40°51' E 025°53'0 0.0
2014-Nov-10 11:32N 40°51' E 025°53'0 0.0
2014-Nov-10 10:32N 40°51' E 025°53'0 0.0
2014-Nov-10 09:32N 40°51' E 025°53'0 0.0
2014-Nov-10 08:32N 40°51' E 025°53'0 0.0
2014-Nov-10 07:32N 40°51' E 025°53'0 0.0
2014-Nov-10 06:32N 40°51' E 025°53'0 0.0
2014-Nov-10 05:32N 40°51' E 025°53'0 0.0
2014-Nov-10 04:32N 40°51' E 025°53'0 0.0
2014-Nov-10 03:32N 40°51' E 025°53'0 0.0
2014-Nov-10 02:32N 40°51' E 025°53'0 0.0
2014-Nov-10 01:29N 40°51' E 025°53'0 0.0
2014-Nov-10 00:32N 40°51' E 025°53'0 0.0
2014-Nov-09 23:32N 40°51' E 025°53'0 0.0
2014-Nov-09 22:32N 40°51' E 025°53'0 0.0
2014-Nov-09 21:32N 40°51' E 025°53'0 0.0
2014-Nov-09 20:32N 40°51' E 025°53'0 0.0
2014-Nov-09 19:32N 40°51' E 025°53'0 0.0
2014-Nov-09 18:32N 40°51' E 025°53'0 0.0
2014-Nov-09 17:32N 40°51' E 025°53'0 0.0
2014-Nov-09 16:32N 40°51' E 025°53'0 0.0
2014-Nov-09 15:32N 40°51' E 025°53'0 0.0
2014-Nov-09 14:32N 40°51' E 025°53'0 0.0
2014-Nov-09 13:29N 40°51' E 025°53'0 0.0
2014-Nov-09 12:32N 40°51' E 025°53'0 0.0
2014-Nov-09 11:32N 40°51' E 025°53'0 0.0
2014-Nov-09 10:32N 40°51' E 025°53'0 0.0
2014-Nov-09 09:32N 40°51' E 025°53'0 0.0
2014-Nov-09 08:32N 40°51' E 025°53'0 0.0
2014-Nov-09 07:32N 40°51' E 025°53'0 0.0
2014-Nov-09 06:32N 40°51' E 025°53'0 0.0
2014-Nov-09 05:32N 40°51' E 025°53'0 0.0
2014-Nov-09 04:32N 40°51' E 025°53'0 0.0
2014-Nov-09 03:32N 40°51' E 025°53'0 0.0
2014-Nov-09 02:32N 40°51' E 025°53'0 0.0
2014-Nov-09 01:32N 40°51' E 025°53'0 0.0
2014-Nov-09 00:32N 40°51' E 025°53'0 0.0
2014-Nov-08 23:32N 40°51' E 025°53'0 0.0
2014-Nov-08 22:32N 40°51' E 025°53'0 0.0
2014-Nov-08 21:32N 40°51' E 025°53'0 0.0
2014-Nov-08 20:32N 40°51' E 025°53'0 0.0
2014-Nov-08 19:32N 40°51' E 025°53'0 0.0
2014-Nov-08 18:32N 40°51' E 025°53'0 0.0
2014-Nov-08 17:32N 40°51' E 025°53'0 0.0
2014-Nov-08 16:32N 40°51' E 025°53'0 0.0
2014-Nov-08 15:32N 40°51' E 025°53'0 0.0
2014-Nov-08 14:32N 40°51' E 025°53'0 0.0
2014-Nov-08 13:32N 40°51' E 025°53'0 0.0
2014-Nov-08 12:32N 40°51' E 025°53'0 0.0
2014-Nov-08 11:32N 40°51' E 025°53'0 0.0
2014-Nov-08 10:32N 40°51' E 025°53'0 0.0
2014-Nov-08 09:32N 40°51' E 025°53'0 0.0
2014-Nov-08 08:32N 40°51' E 025°53'0 0.0
2014-Nov-08 07:32N 40°51' E 025°53'0 0.0
2014-Nov-08 06:32N 40°51' E 025°53'0 0.0
2014-Nov-08 05:32N 40°51' E 025°53'0 0.0
2014-Nov-08 04:32N 40°51' E 025°53'0 0.0
2014-Nov-08 03:32N 40°51' E 025°53'0 0.0
2014-Nov-08 02:32N 40°51' E 025°53'0 0.0
2014-Nov-08 01:32N 40°51' E 025°53'0 0.0
2014-Nov-08 00:32N 40°51' E 025°53'0 0.0
2014-Nov-07 23:32N 40°51' E 025°53'0 0.0
2014-Nov-07 22:32N 40°51' E 025°53'0 0.0
2014-Nov-07 21:32N 40°51' E 025°53'0 0.0
2014-Nov-07 20:32N 40°51' E 025°53'0 0.0
2014-Nov-07 19:32N 40°51' E 025°53'0 0.0
2014-Nov-07 18:32N 40°51' E 025°53'0 0.0
2014-Nov-07 17:32N 40°51' E 025°53'0 0.0
2014-Nov-07 16:32N 40°51' E 025°53'0 0.0
2014-Nov-07 15:33N 40°51' E 025°53'3 3.1
2014-Nov-07 14:33N 40°48' E 025°55'23 6.7
2014-Nov-07 11:12N 40°25' E 025°55'75 7.0
2014-Nov-07 00:31N 39°11' E 025°47'11 8.9
2014-Nov-06 23:16N 39°02' E 025°56'  
Track history (hours):
 
Tides and Currents Weather Stations Pressure Air Temp Water Temp Dewpoint Dewpoint Depression Visibility Wind Speed Wind Dir Waves Ship Positions

Mistral

Last reported at 2014-Nov-14 00:33 UTC. Time now 2014-Nov-23 05:53 UTC.
Position N 36°16' E 027°01'.
Warning: this ship's position is 9 days out of date.

Length 130 m; draft 6 m.

Type: Cargo ship. MMSI: 271000615.

Date/timePositionNaut miles runAvg speedWind from/ knotsBaromVisibWave heightAir tempDewpointWater temp
2014-Nov-14 00:33N 36°16' E 027°01'33 8.2
2014-Nov-13 20:33N 36°40' E 026°33'9 8.7
2014-Nov-13 19:33N 36°46' E 026°26'18 8.8
2014-Nov-13 17:33N 36°58' E 026°10'9 9.5
2014-Nov-13 16:34N 37°04' E 026°01'10 9.6
2014-Nov-13 15:33N 37°11' E 025°52'9 9.5
2014-Nov-13 14:33N 37°14' E 025°40'9 9.4
2014-Nov-13 13:33N 37°17' E 025°29'9 9.0
2014-Nov-13 12:33N 37°20' E 025°19'9 8.8
2014-Nov-13 11:33N 37°22' E 025°08'8 7.6
2014-Nov-13 10:33N 37°25' E 024°59'0 0.1
2014-Nov-13 09:29N 37°25' E 024°59'0 0.0
2014-Nov-13 08:29N 37°25' E 024°59'0 0.0
2014-Nov-13 07:32N 37°25' E 024°59'0 0.0
2014-Nov-13 06:32N 37°25' E 024°59'6 6.1
2014-Nov-13 05:33N 37°28' E 025°06'10 9.7
2014-Nov-13 04:33N 37°32' E 025°17'9 9.3
2014-Nov-13 03:33N 37°41' E 025°20'10 9.7
2014-Nov-13 02:33N 37°51' E 025°22'168 9.1
2014-Nov-12 08:06N 40°36' E 025°55'5 9.8
2014-Nov-12 07:33N 40°42' E 025°55'8 8.2
2014-Nov-12 06:33N 40°50' E 025°54'1 1.0
2014-Nov-12 05:33N 40°51' E 025°53'0 0.0
2014-Nov-12 04:33N 40°51' E 025°53'0 0.0
2014-Nov-12 03:33N 40°51' E 025°53'0 0.0
2014-Nov-12 02:33N 40°51' E 025°53'0 0.0
2014-Nov-12 01:33N 40°51' E 025°53'0 0.0
2014-Nov-12 00:33N 40°51' E 025°53'0 0.0
2014-Nov-11 23:33N 40°51' E 025°53'0 0.0
2014-Nov-11 22:33N 40°51' E 025°53'0 0.0
2014-Nov-11 21:33N 40°51' E 025°53'0 0.0
2014-Nov-11 20:33N 40°51' E 025°53'0 0.0
2014-Nov-11 19:33N 40°51' E 025°53'0 0.0
2014-Nov-11 18:33N 40°51' E 025°53'0 0.0
2014-Nov-11 17:33N 40°51' E 025°53'0 0.0
2014-Nov-11 16:33N 40°51' E 025°53'0 0.0
2014-Nov-11 15:29N 40°51' E 025°53'0 0.0
2014-Nov-11 14:32N 40°51' E 025°53'0 0.0
2014-Nov-11 13:32N 40°51' E 025°53'0 0.0
2014-Nov-11 12:29N 40°51' E 025°53'0 0.0
2014-Nov-11 11:32N 40°51' E 025°53'0 0.0
2014-Nov-11 10:32N 40°51' E 025°53'0 0.0
2014-Nov-11 09:32N 40°51' E 025°53'0 0.0
2014-Nov-11 08:32N 40°51' E 025°53'0 0.0
2014-Nov-11 07:32N 40°51' E 025°53'0 0.0
2014-Nov-11 06:32N 40°51' E 025°53'0 0.0
2014-Nov-11 05:32N 40°51' E 025°53'0 0.0
2014-Nov-11 04:32N 40°51' E 025°53'0 0.0
2014-Nov-11 03:32N 40°51' E 025°53'0 0.0
2014-Nov-11 02:32N 40°51' E 025°53'0 0.0
2014-Nov-11 01:32N 40°51' E 025°53'0 0.0
2014-Nov-11 00:32N 40°51' E 025°53'0 0.0
2014-Nov-10 23:32N 40°51' E 025°53'0 0.0
2014-Nov-10 22:32N 40°51' E 025°53'0 0.0
2014-Nov-10 21:32N 40°51' E 025°53'0 0.0
2014-Nov-10 20:32N 40°51' E 025°53'0 0.0
2014-Nov-10 19:32N 40°51' E 025°53'0 0.0
2014-Nov-10 18:32N 40°51' E 025°53'0 0.0
2014-Nov-10 17:32N 40°51' E 025°53'0 0.0
2014-Nov-10 16:32N 40°51' E 025°53'0 0.0
2014-Nov-10 15:32N 40°51' E 025°53'0 0.0
2014-Nov-10 14:32N 40°51' E 025°53'0 0.0
2014-Nov-10 13:32N 40°51' E 025°53'0 0.0
2014-Nov-10 12:32N 40°51' E 025°53'0 0.0
2014-Nov-10 11:32N 40°51' E 025°53'0 0.0
2014-Nov-10 10:32N 40°51' E 025°53'0 0.0
2014-Nov-10 09:32N 40°51' E 025°53'0 0.0
2014-Nov-10 08:32N 40°51' E 025°53'0 0.0
2014-Nov-10 07:32N 40°51' E 025°53'0 0.0
2014-Nov-10 06:32N 40°51' E 025°53'0 0.0
2014-Nov-10 05:32N 40°51' E 025°53'0 0.0
2014-Nov-10 04:32N 40°51' E 025°53'0 0.0
2014-Nov-10 03:32N 40°51' E 025°53'0 0.0
2014-Nov-10 02:32N 40°51' E 025°53'0 0.0
2014-Nov-10 01:29N 40°51' E 025°53'0 0.0
2014-Nov-10 00:32N 40°51' E 025°53'0 0.0
2014-Nov-09 23:32N 40°51' E 025°53'0 0.0
2014-Nov-09 22:32N 40°51' E 025°53'0 0.0
2014-Nov-09 21:32N 40°51' E 025°53'0 0.0
2014-Nov-09 20:32N 40°51' E 025°53'0 0.0
2014-Nov-09 19:32N 40°51' E 025°53'0 0.0
2014-Nov-09 18:32N 40°51' E 025°53'0 0.0
2014-Nov-09 17:32N 40°51' E 025°53'0 0.0
2014-Nov-09 16:32N 40°51' E 025°53'0 0.0
2014-Nov-09 15:32N 40°51' E 025°53'0 0.0
2014-Nov-09 14:32N 40°51' E 025°53'0 0.0
2014-Nov-09 13:29N 40°51' E 025°53'0 0.0
2014-Nov-09 12:32N 40°51' E 025°53'0 0.0
2014-Nov-09 11:32N 40°51' E 025°53'0 0.0
2014-Nov-09 10:32N 40°51' E 025°53'0 0.0
2014-Nov-09 09:32N 40°51' E 025°53'0 0.0
2014-Nov-09 08:32N 40°51' E 025°53'0 0.0
2014-Nov-09 07:32N 40°51' E 025°53'0 0.0
2014-Nov-09 06:32N 40°51' E 025°53'0 0.0
2014-Nov-09 05:32N 40°51' E 025°53'0 0.0
2014-Nov-09 04:32N 40°51' E 025°53'0 0.0
2014-Nov-09 03:32N 40°51' E 025°53'0 0.0
2014-Nov-09 02:32N 40°51' E 025°53'0 0.0
2014-Nov-09 01:32N 40°51' E 025°53'0 0.0
2014-Nov-09 00:32N 40°51' E 025°53'0 0.0
2014-Nov-08 23:32N 40°51' E 025°53'0 0.0
2014-Nov-08 22:32N 40°51' E 025°53'0 0.0
2014-Nov-08 21:32N 40°51' E 025°53'0 0.0
2014-Nov-08 20:32N 40°51' E 025°53'0 0.0
2014-Nov-08 19:32N 40°51' E 025°53'0 0.0
2014-Nov-08 18:32N 40°51' E 025°53'0 0.0
2014-Nov-08 17:32N 40°51' E 025°53'0 0.0
2014-Nov-08 16:32N 40°51' E 025°53'0 0.0
2014-Nov-08 15:32N 40°51' E 025°53'0 0.0
2014-Nov-08 14:32N 40°51' E 025°53'0 0.0
2014-Nov-08 13:32N 40°51' E 025°53'0 0.0
2014-Nov-08 12:32N 40°51' E 025°53'0 0.0
2014-Nov-08 11:32N 40°51' E 025°53'0 0.0
2014-Nov-08 10:32N 40°51' E 025°53'0 0.0
2014-Nov-08 09:32N 40°51' E 025°53'0 0.0
2014-Nov-08 08:32N 40°51' E 025°53'0 0.0
2014-Nov-08 07:32N 40°51' E 025°53'0 0.0
2014-Nov-08 06:32N 40°51' E 025°53'0 0.0
2014-Nov-08 05:32N 40°51' E 025°53'0 0.0
2014-Nov-08 04:32N 40°51' E 025°53'0 0.0
2014-Nov-08 03:32N 40°51' E 025°53'0 0.0
2014-Nov-08 02:32N 40°51' E 025°53'0 0.0
2014-Nov-08 01:32N 40°51' E 025°53'0 0.0
2014-Nov-08 00:32N 40°51' E 025°53'0 0.0
2014-Nov-07 23:32N 40°51' E 025°53'0 0.0
2014-Nov-07 22:32N 40°51' E 025°53'0 0.0
2014-Nov-07 21:32N 40°51' E 025°53'0 0.0
2014-Nov-07 20:32N 40°51' E 025°53'0 0.0
2014-Nov-07 19:32N 40°51' E 025°53'0 0.0
2014-Nov-07 18:32N 40°51' E 025°53'0 0.0
2014-Nov-07 17:32N 40°51' E 025°53'0 0.0
2014-Nov-07 16:32N 40°51' E 025°53'0 0.0
2014-Nov-07 15:33N 40°51' E 025°53'3 3.1
2014-Nov-07 14:33N 40°48' E 025°55'23 6.7
2014-Nov-07 11:12N 40°25' E 025°55'75 7.0
2014-Nov-07 00:31N 39°11' E 025°47'11 8.9
2014-Nov-06 23:16N 39°02' E 025°56'  

Dump ship's entire track history